Time,TemperatureF,DewpointF,PressureIn,WindDirection,WindDirectionDegrees,WindSpeedMPH,WindSpeedGustMPH,Humidity,HourlyPrecipIn,Conditions,Clouds,dailyrainin,SoftwareType,DateUTC
2013-10-08 00:02:00,49.0,27.0,-100.00,SW,224,6.0,6.0,42,0.00,,,0.00,,2013-10-08 06:02:00,
2013-10-08 00:22:00,45.0,27.0,-100.00,SSW,195,2.0,3.0,48,0.00,,,0.00,,2013-10-08 06:22:00,
2013-10-08 00:32:00,45.0,27.0,-100.00,SSW,195,2.0,3.0,48,0.00,,,0.00,,2013-10-08 06:32:00,
2013-10-08 00:52:00,49.0,26.0,-100.00,SSW,205,2.0,4.0,40,0.00,,,0.00,,2013-10-08 06:52:00,
2013-10-08 01:02:00,49.0,26.0,-100.00,SSW,205,2.0,4.0,40,0.00,,,0.00,,2013-10-08 07:02:00,
2013-10-08 01:21:00,49.0,27.0,-100.00,SSW,195,2.0,5.0,42,0.00,,,0.00,,2013-10-08 07:21:00,
2013-10-08 01:31:00,49.0,27.0,-100.00,SSW,195,2.0,5.0,42,0.00,,,0.00,,2013-10-08 07:31:00,
2013-10-08 01:52:00,44.0,27.0,-100.00,SSE,155,8.0,9.0,51,0.00,,,0.00,,2013-10-08 07:52:00,
2013-10-08 02:02:00,44.0,27.0,-100.00,SSE,155,8.0,9.0,51,0.00,,,0.00,,2013-10-08 08:02:00,
2013-10-08 02:22:00,43.0,27.0,-100.00,SSE,152,8.0,9.0,53,0.00,,,0.00,,2013-10-08 08:22:00,
2013-10-08 02:32:00,43.0,27.0,-100.00,SSE,152,8.0,9.0,53,0.00,,,0.00,,2013-10-08 08:32:00,
2013-10-08 02:52:00,44.0,28.0,-100.00,SSE,162,8.0,9.0,53,0.00,,,0.00,,2013-10-08 08:52:00,
2013-10-08 03:02:00,44.0,28.0,-100.00,SSE,162,8.0,9.0,53,0.00,,,0.00,,2013-10-08 09:02:00,
2013-10-08 03:21:00,43.0,30.0,-100.00,South,174,6.0,8.0,59,0.00,,,0.00,,2013-10-08 09:21:00,
2013-10-08 03:33:00,43.0,30.0,-100.00,South,174,6.0,8.0,59,0.00,,,0.00,,2013-10-08 09:33:00,
2013-10-08 03:53:00,45.0,30.0,-100.00,South,174,7.0,9.0,57,0.00,,,0.00,,2013-10-08 09:53:00,
2013-10-08 04:03:00,45.0,30.0,-100.00,South,174,7.0,9.0,57,0.00,,,0.00,,2013-10-08 10:03:00,
2013-10-08 04:23:00,44.0,31.0,-100.00,South,178,9.0,12.0,60,0.00,,,0.00,,2013-10-08 10:23:00,
2013-10-08 04:33:00,44.0,31.0,-100.00,South,178,9.0,12.0,60,0.00,,,0.00,,2013-10-08 10:33:00,
2013-10-08 04:53:00,44.0,31.0,-100.00,South,184,7.0,11.0,59,0.00,,,0.00,,2013-10-08 10:53:00,
2013-10-08 05:02:00,44.0,31.0,-100.00,South,184,7.0,11.0,59,0.00,,,0.00,,2013-10-08 11:02:00,
2013-10-08 05:21:00,46.0,31.0,-100.00,South,178,11.0,13.0,56,0.00,,,0.00,,2013-10-08 11:21:00,
2013-10-08 05:33:00,46.0,31.0,-100.00,South,178,11.0,13.0,56,0.00,,,0.00,,2013-10-08 11:33:00,
2013-10-08 05:52:00,45.0,32.0,-100.00,South,176,13.0,16.0,60,0.00,,,0.00,,2013-10-08 11:52:00,
2013-10-08 06:02:00,45.0,32.0,-100.00,South,176,13.0,16.0,60,0.00,,,0.00,,2013-10-08 12:02:00,
2013-10-08 06:21:00,45.0,33.0,-100.00,South,185,10.0,15.0,64,0.00,,,0.00,,2013-10-08 12:21:00,
2013-10-08 06:31:00,45.0,33.0,-100.00,South,185,10.0,15.0,64,0.00,,,0.00,,2013-10-08 12:31:00,
2013-10-08 06:52:00,44.0,34.0,-100.00,South,181,13.0,15.0,69,0.00,,,0.00,,2013-10-08 12:52:00,
2013-10-08 07:01:00,44.0,34.0,-100.00,South,181,13.0,15.0,69,0.00,,,0.00,,2013-10-08 13:01:00,
2013-10-08 07:22:00,43.0,35.0,-100.00,South,186,12.0,18.0,71,0.00,,,0.00,,2013-10-08 13:22:00,
2013-10-08 07:32:00,43.0,35.0,-100.00,South,186,12.0,18.0,71,0.00,,,0.00,,2013-10-08 13:32:00,
2013-10-08 07:52:00,43.0,34.0,-100.00,South,186,11.0,17.0,70,0.00,,,0.00,,2013-10-08 13:52:00,
2013-10-08 08:02:00,43.0,34.0,-100.00,South,186,11.0,17.0,70,0.00,,,0.00,,2013-10-08 14:02:00,
2013-10-08 08:22:00,43.0,34.0,-100.00,South,186,11.0,16.0,72,0.00,,,0.00,,2013-10-08 14:22:00,
2013-10-08 08:32:00,43.0,34.0,-100.00,South,186,11.0,16.0,72,0.00,,,0.00,,2013-10-08 14:32:00,
2013-10-08 08:52:00,42.0,34.0,-100.00,SSW,195,11.0,16.0,72,0.00,,,0.00,,2013-10-08 14:52:00,
2013-10-08 09:01:00,42.0,34.0,-100.00,SSW,195,11.0,16.0,72,0.00,,,0.00,,2013-10-08 15:01:00,
2013-10-08 09:22:00,42.0,34.0,-100.00,SSW,200,10.0,13.0,73,0.00,,,0.00,,2013-10-08 15:22:00,
2013-10-08 09:33:00,42.0,34.0,-100.00,SSW,200,10.0,13.0,73,0.00,,,0.00,,2013-10-08 15:33:00,
2013-10-08 09:53:00,43.0,33.0,-100.00,South,191,10.0,14.0,70,0.00,,,0.00,,2013-10-08 15:53:00,
2013-10-08 10:03:00,43.0,33.0,-100.00,South,191,10.0,14.0,70,0.00,,,0.00,,2013-10-08 16:03:00,
2013-10-08 10:23:00,43.0,32.0,-100.00,SSW,198,12.0,18.0,65,0.00,,,0.00,,2013-10-08 16:23:00,
2013-10-08 10:33:00,43.0,32.0,-100.00,SSW,198,12.0,18.0,65,0.00,,,0.00,,2013-10-08 16:33:00,
2013-10-08 10:53:00,43.0,31.0,-100.00,SSW,208,14.0,22.0,64,0.00,,,0.00,,2013-10-08 16:53:00,
2013-10-08 11:02:00,43.0,31.0,-100.00,SSW,208,14.0,22.0,64,0.00,,,0.00,,2013-10-08 17:02:00,
2013-10-08 11:22:00,44.0,31.0,-100.00,SSW,205,11.0,16.0,60,0.00,,,0.00,,2013-10-08 17:22:00,
2013-10-08 11:33:00,44.0,31.0,-100.00,SSW,205,11.0,16.0,60,0.00,,,0.00,,2013-10-08 17:33:00,
2013-10-08 11:52:00,46.0,28.0,-100.00,SW,232,15.0,20.0,48,0.00,,,0.00,,2013-10-08 17:52:00,
2013-10-08 12:02:00,46.0,28.0,-100.00,SW,232,15.0,20.0,48,0.00,,,0.00,,2013-10-08 18:02:00,
2013-10-08 12:22:00,49.0,27.0,-100.00,WSW,250,16.0,20.0,42,0.00,,,0.00,,2013-10-08 18:22:00,
2013-10-08 12:32:00,49.0,27.0,-100.00,WSW,250,16.0,20.0,42,0.00,,,0.00,,2013-10-08 18:32:00,
2013-10-08 12:53:00,47.0,28.0,-100.00,SW,229,19.0,23.0,48,0.00,,,0.00,,2013-10-08 18:53:00,
2013-10-08 13:02:00,47.0,28.0,-100.00,SW,229,19.0,23.0,48,0.00,,,0.00,,2013-10-08 19:02:00,
2013-10-08 13:11:00,47.0,28.0,-100.00,SW,229,19.0,23.0,48,0.00,,,0.00,,2013-10-08 19:11:00,
2013-10-08 13:42:00,49.0,26.0,-100.00,SW,219,18.0,26.0,41,0.00,,,0.00,,2013-10-08 19:42:00,
2013-10-08 14:12:00,50.0,28.0,-100.00,SW,230,23.0,28.0,42,0.00,,,0.00,,2013-10-08 20:12:00,
2013-10-08 14:42:00,51.0,26.0,-100.00,SW,233,26.0,30.0,38,0.00,,,0.00,,2013-10-08 20:42:00,
2013-10-08 15:12:00,51.0,25.0,-100.00,SW,233,22.0,26.0,35,0.00,,,0.00,,2013-10-08 21:12:00,
2013-10-08 15:44:00,53.0,26.0,-100.00,WSW,241,21.0,26.0,35,0.00,,,0.00,,2013-10-08 21:44:00,
2013-10-08 16:13:00,52.0,26.0,-100.00,SW,234,21.0,27.0,36,0.00,,,0.00,,2013-10-08 22:13:00,
2013-10-08 16:48:00,52.0,26.0,-100.00,SW,219,19.0,26.0,36,0.00,,,0.00,,2013-10-08 22:48:00,
2013-10-08 17:12:00,51.0,27.0,-100.00,SW,227,17.0,23.0,39,0.00,,,0.00,,2013-10-08 23:12:00,
2013-10-08 17:42:00,52.0,27.0,-100.00,SW,233,21.0,26.0,38,0.00,,,0.00,,2013-10-08 23:42:00,
2013-10-08 18:12:00,51.0,26.0,-100.00,SW,230,19.0,24.0,36,0.00,,,0.00,,2013-10-09 00:12:00,
2013-10-08 18:43:00,51.0,24.0,-100.00,SW,229,16.0,21.0,35,0.00,,,0.00,,2013-10-09 00:43:00,
2013-10-08 19:12:00,50.0,25.0,-100.00,SSW,212,7.0,12.0,38,0.00,,,0.00,,2013-10-09 01:12:00,
2013-10-08 19:43:00,47.0,27.0,-100.00,SW,217,9.0,12.0,45,0.00,,,0.00,,2013-10-09 01:43:00,
2013-10-08 20:12:00,45.0,27.0,-100.00,SSW,202,5.0,7.0,50,0.00,,,0.00,,2013-10-09 02:12:00,
2013-10-08 20:42:00,42.0,26.0,-100.00,SSE,155,8.0,9.0,53,0.00,,,0.00,,2013-10-09 02:42:00,
2013-10-08 21:11:00,40.0,26.0,-100.00,South,175,7.0,9.0,58,0.00,,,0.00,,2013-10-09 03:11:00,
2013-10-08 21:45:00,40.0,28.0,-100.00,SSW,193,7.0,9.0,61,0.00,,,0.00,,2013-10-09 03:45:00,
2013-10-08 22:14:00,38.0,28.0,-100.00,SSW,193,6.0,9.0,66,0.00,,,0.00,,2013-10-09 04:14:00,
2013-10-08 22:44:00,36.0,28.0,-100.00,SE,143,6.0,7.0,73,0.00,,,0.00,,2013-10-09 04:44:00,
2013-10-08 23:13:00,33.0,27.0,-100.00,SSE,150,6.0,6.0,76,0.00,,,0.00,,2013-10-09 05:13:00,
2013-10-08 23:42:00,35.0,28.0,-100.00,SSE,151,9.0,10.0,76,0.00,,,0.00,,2013-10-09 05:42:00,